createdAt,value
2023-03-13T00:02:04.157Z,87.75
2023-03-13T00:04:33.160Z,87.51
2023-03-13T00:07:00.722Z,88.55
2023-03-13T00:09:28.253Z,87.71
2023-03-13T00:11:55.777Z,87.72
2023-03-13T00:14:23.262Z,87.86
2023-03-13T00:16:50.853Z,87.92
2023-03-13T00:19:18.400Z,88.05
2023-03-13T00:21:47.315Z,90.63
2023-03-13T00:24:14.946Z,89.13
2023-03-13T00:26:42.379Z,89.30
2023-03-13T00:29:09.824Z,88.75
2023-03-13T00:31:37.425Z,88.85
2023-03-13T00:34:05.107Z,89.41
2023-03-13T00:36:33.889Z,90.24
2023-03-13T00:39:03.106Z,90.40
2023-03-13T00:41:31.126Z,90.05
2023-03-13T00:43:58.733Z,90.52
2023-03-13T00:46:27.176Z,91.73
2023-03-13T00:48:54.959Z,95.40
2023-03-13T00:51:23.784Z,94.96
2023-03-13T00:53:51.346Z,91.35
2023-03-13T00:56:20.529Z,93.07
2023-03-13T00:58:48.648Z,90.35
2023-03-13T01:01:16.777Z,91.05
2023-03-13T01:03:44.924Z,91.69
2023-03-13T01:06:13.450Z,93.67
2023-03-13T01:08:40.988Z,91.36
2023-03-13T01:11:09.603Z,91.55
2023-03-13T01:13:38.656Z,91.19
2023-03-13T01:16:06.905Z,91.67
2023-03-13T01:18:34.610Z,90.13
2023-03-13T01:21:02.214Z,91.04
2023-03-13T01:23:29.812Z,91.39
2023-03-13T01:25:57.552Z,91.39
2023-03-13T01:28:25.291Z,91.01
2023-03-13T01:30:54.381Z,91.12
2023-03-13T01:33:21.923Z,90.55
2023-03-13T01:35:49.471Z,90.00
2023-03-13T01:38:17.006Z,94.48
2023-03-13T01:40:45.707Z,90.26
2023-03-13T01:43:17.582Z,90.40
2023-03-13T01:46:02.055Z,90.87
2023-03-13T01:48:31.893Z,93.68
2023-03-13T01:51:00.015Z,91.74
2023-03-13T01:53:27.516Z,92.01
2023-03-13T01:55:55.006Z,91.57
2023-03-13T01:58:22.430Z,91.93
2023-03-13T02:00:49.915Z,93.10
2023-03-13T02:03:19.435Z,90.61
2023-03-13T02:05:46.881Z,90.74
2023-03-13T02:08:15.772Z,90.31
2023-03-13T02:10:44.891Z,91.17
2023-03-13T02:13:15.204Z,90.36
2023-03-13T02:15:42.757Z,90.44
2023-03-13T02:18:10.316Z,90.67
2023-03-13T02:20:39.930Z,94.74
2023-03-13T02:23:08.888Z,91.04
2023-03-13T02:25:40.111Z,90.78
2023-03-13T02:28:08.590Z,90.93
2023-03-13T02:30:36.143Z,92.12
2023-03-13T02:33:03.822Z,93.18
2023-03-13T02:35:31.421Z,92.38
2023-03-13T02:37:59.205Z,91.41
2023-03-13T02:40:27.458Z,93.32
2023-03-13T02:42:56.297Z,90.96
2023-03-13T02:45:23.952Z,92.04
2023-03-13T02:47:51.494Z,94.12
2023-03-13T02:50:19.054Z,91.75
2023-03-13T02:52:46.948Z,95.33
2023-03-13T02:55:17.763Z,93.12
2023-03-13T02:57:45.228Z,92.90
2023-03-13T03:00:17.040Z,92.79
2023-03-13T03:02:44.729Z,92.92
2023-03-13T03:05:12.523Z,91.46
2023-03-13T03:07:39.985Z,91.55
2023-03-13T03:10:08.078Z,97.30
2023-03-13T03:12:35.608Z,97.95
2023-03-13T03:15:04.773Z,93.25
2023-03-13T03:17:33.745Z,92.33
2023-03-13T03:20:01.237Z,93.68
2023-03-13T03:22:28.759Z,92.36
2023-03-13T03:24:56.353Z,92.55
2023-03-13T03:27:23.891Z,93.80
2023-03-13T03:29:51.403Z,94.43
2023-03-13T03:32:18.984Z,94.00
2023-03-13T03:34:47.916Z,92.89
2023-03-13T03:37:15.359Z,94.33
2023-03-13T03:39:42.916Z,92.69
2023-03-13T03:42:10.566Z,92.68
2023-03-13T03:44:38.096Z,96.32
2023-03-13T03:47:05.856Z,93.13
2023-03-13T03:49:33.390Z,92.71
2023-03-13T03:52:02.207Z,93.27
2023-03-13T03:54:29.771Z,94.40
2023-03-13T03:56:57.282Z,93.46
2023-03-13T03:59:24.792Z,94.06
2023-03-13T04:01:52.393Z,93.57
2023-03-13T04:04:19.939Z,93.78
2023-03-13T04:06:47.425Z,93.20
2023-03-13T04:09:16.296Z,92.96
2023-03-13T04:11:43.724Z,93.46
2023-03-13T04:14:11.178Z,93.72
2023-03-13T04:16:38.764Z,93.26
2023-03-13T04:19:07.482Z,94.07
2023-03-13T04:21:34.970Z,94.17
2023-03-13T04:24:02.526Z,93.68
2023-03-13T04:26:31.355Z,100.00
2023-03-13T04:28:58.832Z,95.88
2023-03-13T04:31:26.335Z,96.95
2023-03-13T04:33:53.776Z,96.89
2023-03-13T04:36:21.421Z,100.00
2023-03-13T04:38:48.997Z,97.93
2023-03-13T04:41:16.512Z,97.51
2023-03-13T04:43:45.392Z,94.63
2023-03-13T04:46:12.986Z,94.82
2023-03-13T04:48:40.500Z,95.63
2023-03-13T04:51:08.005Z,96.47
2023-03-13T04:53:35.565Z,94.43
2023-03-13T04:56:03.021Z,95.15
2023-03-13T04:58:30.553Z,96.29
2023-03-13T05:00:59.500Z,94.65
2023-03-13T05:03:27.136Z,94.39
2023-03-13T05:05:54.562Z,95.56
2023-03-13T05:08:22.084Z,95.27
2023-03-13T05:10:49.543Z,94.34
2023-03-13T05:13:16.979Z,95.35
2023-03-13T05:15:44.621Z,94.53
2023-03-13T05:18:13.857Z,98.52
2023-03-13T05:20:41.405Z,97.79
2023-03-13T05:23:08.878Z,95.62
2023-03-13T05:25:36.297Z,95.02
2023-03-13T05:28:03.945Z,95.07
2023-03-13T05:30:31.426Z,95.84
2023-03-13T05:32:59.013Z,96.09
2023-03-13T05:35:27.965Z,96.09
2023-03-13T05:37:55.501Z,95.61
2023-03-13T05:40:23.090Z,94.56
2023-03-13T05:42:50.629Z,94.80
2023-03-13T05:45:18.202Z,97.07
2023-03-13T05:47:45.714Z,95.29
2023-03-13T05:50:13.175Z,94.59
2023-03-13T05:52:42.104Z,94.61
2023-03-13T05:55:10.012Z,95.41
2023-03-13T05:57:37.546Z,95.52
2023-03-13T06:00:05.368Z,95.01
2023-03-13T06:02:32.913Z,95.50
2023-03-13T06:05:00.554Z,95.37
2023-03-13T06:07:28.055Z,95.80
2023-03-13T06:09:56.978Z,97.09
2023-03-13T06:12:24.481Z,96.03
2023-03-13T06:14:51.989Z,94.88
2023-03-13T06:17:19.471Z,95.46
2023-03-13T06:19:47.264Z,95.95
2023-03-13T06:22:14.750Z,96.92
2023-03-13T06:24:44.626Z,95.81
2023-03-13T06:27:13.509Z,95.83
2023-03-13T06:29:41.099Z,95.19
2023-03-13T06:32:08.899Z,97.18
2023-03-13T06:34:36.516Z,95.40
2023-03-13T06:37:04.450Z,95.34
2023-03-13T06:39:31.947Z,95.56
2023-03-13T06:41:59.416Z,98.04
2023-03-13T06:44:28.381Z,95.79
2023-03-13T06:46:55.942Z,95.37
2023-03-13T06:49:23.498Z,94.94
2023-03-13T06:51:51.025Z,95.92
2023-03-13T06:54:18.473Z,98.21
2023-03-13T06:56:45.951Z,95.53
2023-03-13T06:59:13.438Z,97.04
2023-03-13T07:01:42.342Z,97.03
2023-03-13T07:04:10.967Z,96.04
2023-03-13T07:06:38.473Z,95.57
2023-03-13T07:09:06.198Z,95.34
2023-03-13T07:11:33.707Z,100.00
2023-03-13T07:14:15.269Z,96.44
2023-03-13T07:16:45.794Z,96.24
2023-03-13T07:19:13.447Z,95.50
2023-03-13T07:21:40.907Z,95.64
2023-03-13T07:24:08.717Z,96.79
2023-03-13T07:26:36.412Z,95.97
2023-03-13T07:29:04.020Z,97.20
2023-03-13T07:31:34.155Z,96.93
2023-03-13T07:34:03.134Z,96.34
2023-03-13T07:36:30.957Z,95.42
2023-03-13T07:38:58.723Z,98.56
2023-03-13T07:41:26.293Z,96.34
2023-03-13T07:43:53.826Z,97.29
2023-03-13T07:46:21.689Z,96.44
2023-03-13T07:48:49.443Z,95.74
2023-03-13T07:51:20.554Z,96.67
2023-03-13T07:53:51.258Z,96.62
2023-03-13T07:56:19.311Z,96.10
2023-03-13T07:58:46.965Z,95.69
2023-03-13T08:01:16.065Z,96.39
2023-03-13T08:03:44.219Z,96.47
2023-03-13T08:06:12.229Z,96.81
2023-03-13T08:08:41.429Z,96.18
2023-03-13T08:11:10.337Z,99.46
2023-03-13T08:13:37.863Z,100.00
2023-03-13T08:16:06.510Z,97.88
2023-03-13T08:18:35.771Z,96.84
2023-03-13T08:21:04.323Z,97.82
2023-03-13T08:23:31.830Z,95.71
2023-03-13T08:26:04.237Z,95.37
2023-03-13T08:28:31.752Z,95.42
2023-03-13T08:30:59.284Z,96.02
2023-03-13T08:33:26.851Z,95.18
2023-03-13T08:35:54.505Z,97.29
2023-03-13T08:38:22.064Z,98.52
2023-03-13T08:40:49.551Z,96.59
2023-03-13T08:43:18.381Z,95.31
2023-03-13T08:45:45.981Z,95.74
2023-03-13T08:48:13.574Z,95.95
2023-03-13T08:50:41.038Z,95.70
2023-03-13T08:53:08.499Z,95.71
2023-03-13T08:55:36.304Z,95.59
2023-03-13T08:58:03.853Z,95.77
2023-03-13T09:00:33.150Z,95.96
2023-03-13T09:03:00.583Z,97.48
2023-03-13T09:05:28.045Z,96.85
2023-03-13T09:07:55.522Z,95.99
2023-03-13T09:10:23.937Z,96.88
2023-03-13T09:12:51.538Z,97.34
2023-03-13T09:15:19.008Z,96.80
2023-03-13T09:17:47.947Z,96.49
2023-03-13T09:20:15.463Z,95.50
2023-03-13T09:22:43.041Z,97.27
2023-03-13T09:25:10.761Z,95.40
2023-03-13T09:27:38.246Z,96.59
2023-03-13T09:30:06.213Z,96.74
2023-03-13T09:32:33.727Z,95.90
2023-03-13T09:35:02.622Z,95.36
2023-03-13T09:37:30.170Z,95.29
2023-03-13T09:39:59.114Z,96.44
2023-03-13T09:42:29.481Z,97.29
2023-03-13T09:44:57.471Z,95.21
2023-03-13T09:47:25.482Z,95.05
2023-03-13T09:49:54.405Z,95.65
2023-03-13T09:52:25.407Z,96.46
2023-03-13T09:54:53.538Z,94.55
2023-03-13T09:57:23.087Z,94.33
2023-03-13T09:59:52.643Z,94.56
2023-03-13T10:02:26.237Z,93.98
2023-03-13T10:04:54.916Z,93.90
2023-03-13T10:07:23.873Z,93.97
2023-03-13T10:09:51.955Z,93.70
2023-03-13T10:12:20.857Z,94.35
2023-03-13T10:14:51.035Z,94.08
2023-03-13T10:17:21.669Z,93.73
2023-03-13T10:19:50.192Z,93.62
2023-03-13T10:22:18.629Z,93.13
2023-03-13T10:24:48.821Z,92.92
2023-03-13T10:27:16.708Z,93.14
2023-03-13T10:29:44.236Z,92.72
2023-03-13T10:32:12.734Z,92.92
2023-03-13T10:34:46.655Z,93.47
2023-03-13T10:37:15.079Z,92.71
2023-03-13T10:39:42.641Z,92.98
2023-03-13T10:42:11.980Z,92.73
2023-03-13T10:44:39.484Z,92.12
2023-03-13T10:47:07.173Z,92.20
2023-03-13T10:49:34.712Z,92.41
2023-03-13T10:52:03.099Z,92.03
2023-03-13T10:54:31.142Z,91.87
2023-03-13T10:57:09.378Z,92.59
2023-03-13T10:59:41.233Z,91.87
2023-03-13T11:02:18.751Z,92.01
2023-03-13T11:04:53.366Z,91.79
2023-03-13T11:07:27.705Z,91.77
2023-03-13T11:10:02.046Z,91.33
2023-03-13T11:12:29.931Z,90.73
2023-03-13T11:14:59.468Z,90.83
2023-03-13T11:17:30.082Z,89.55
2023-03-13T11:19:59.646Z,89.16
2023-03-13T11:22:31.533Z,90.03
2023-03-13T11:25:10.933Z,89.99
2023-03-13T11:27:40.130Z,89.78
2023-03-13T11:30:12.922Z,89.60
2023-03-13T11:32:42.773Z,90.11
2023-03-13T11:35:16.364Z,89.44
2023-03-13T11:37:43.901Z,89.13
2023-03-13T11:40:13.868Z,89.16
2023-03-13T11:42:47.574Z,84.14
2023-03-13T11:45:23.061Z,87.38
2023-03-13T11:47:53.205Z,87.98
2023-03-13T11:50:24.616Z,87.55
2023-03-13T11:52:59.710Z,87.75
2023-03-13T11:55:31.800Z,88.27
2023-03-13T11:58:02.978Z,87.88
2023-03-13T12:00:32.686Z,84.01
2023-03-13T12:03:04.824Z,86.11
2023-03-13T12:05:33.015Z,87.51
2023-03-13T12:08:02.290Z,86.81
2023-03-13T12:10:30.763Z,87.08
2023-03-13T12:13:00.467Z,87.02
2023-03-13T12:15:28.872Z,86.82
2023-03-13T12:17:59.909Z,87.94
2023-03-13T12:20:28.338Z,85.27
2023-03-13T12:23:08.078Z,86.46
2023-03-13T12:25:38.144Z,86.55
2023-03-13T12:28:11.349Z,86.04
2023-03-13T12:30:39.603Z,86.55
2023-03-13T12:33:14.781Z,84.81
2023-03-13T12:35:42.387Z,86.60
2023-03-13T12:38:11.665Z,85.46
2023-03-13T12:40:39.602Z,85.40
2023-03-13T12:43:07.652Z,85.75
2023-03-13T12:45:35.128Z,85.68
2023-03-13T12:48:15.386Z,85.05
2023-03-13T12:50:45.289Z,81.76
2023-03-13T12:53:27.675Z,83.80
2023-03-13T12:55:57.457Z,83.71
2023-03-13T12:58:30.292Z,84.09
2023-03-13T13:00:58.142Z,81.43
2023-03-13T13:03:29.048Z,83.73
2023-03-13T13:06:09.024Z,83.71
2023-03-13T13:08:40.130Z,82.17
2023-03-13T13:11:25.577Z,82.79
2023-03-13T13:13:53.081Z,80.47
2023-03-13T13:16:21.217Z,74.15
2023-03-13T13:18:50.200Z,73.85
2023-03-13T13:21:22.310Z,72.76
2023-03-13T13:23:53.850Z,80.82
2023-03-13T13:26:48.770Z,81.33
2023-03-13T13:29:37.000Z,77.58
2023-03-13T13:32:06.676Z,69.84
2023-03-13T13:34:49.344Z,77.79
2023-03-13T13:37:28.896Z,77.78
2023-03-13T13:39:57.755Z,79.75
2023-03-13T13:42:55.427Z,79.79
2023-03-13T13:45:27.619Z,80.31
2023-03-13T13:48:10.106Z,80.97
2023-03-13T13:50:37.599Z,79.79
2023-03-13T13:53:19.948Z,79.64
2023-03-13T13:55:48.824Z,80.83
2023-03-13T13:58:18.970Z,82.00
2023-03-13T14:00:46.901Z,77.85
2023-03-13T14:03:21.660Z,80.47
2023-03-13T14:05:49.319Z,83.02
2023-03-13T14:08:18.122Z,82.25
2023-03-13T14:10:46.777Z,81.69
2023-03-13T14:13:17.152Z,83.69
2023-03-13T14:15:45.513Z,83.33
2023-03-13T14:18:14.316Z,79.50
2023-03-13T14:20:42.197Z,81.11
2023-03-13T14:23:10.075Z,81.78
2023-03-13T14:25:45.615Z,79.51
2023-03-13T14:28:18.594Z,71.44
2023-03-13T14:30:46.111Z,76.10
2023-03-13T14:33:13.647Z,75.15
2023-03-13T14:35:41.199Z,78.25
2023-03-13T14:38:08.982Z,79.09
2023-03-13T14:40:38.492Z,80.38
2023-03-13T14:43:06.107Z,79.35
2023-03-13T14:45:35.440Z,79.47
2023-03-13T14:48:03.535Z,76.08
2023-03-13T14:50:31.095Z,73.23
2023-03-13T14:52:59.481Z,69.64
2023-03-13T14:55:28.333Z,76.16
2023-03-13T14:57:56.315Z,75.96
2023-03-13T15:00:30.412Z,78.77
2023-03-13T15:03:12.754Z,74.50
2023-03-13T15:05:41.668Z,74.03
2023-03-13T15:08:11.838Z,76.22
2023-03-13T15:10:40.856Z,79.39
2023-03-13T15:13:15.510Z,67.19
2023-03-13T15:15:43.111Z,65.87
2023-03-13T15:18:14.145Z,70.93
2023-03-13T15:20:43.062Z,74.42
2023-03-13T15:23:11.172Z,70.75
2023-03-13T15:25:40.492Z,77.00
2023-03-13T15:28:10.384Z,78.09
2023-03-13T15:30:37.914Z,78.29
2023-03-13T15:33:05.569Z,77.57
2023-03-13T15:35:33.896Z,79.03
2023-03-13T15:38:03.020Z,80.48
2023-03-13T15:40:31.759Z,77.17
2023-03-13T15:42:59.385Z,74.22
2023-03-13T15:45:26.866Z,79.71
2023-03-13T15:47:54.376Z,79.33
2023-03-13T15:50:25.522Z,72.60
2023-03-13T15:52:53.039Z,78.34
2023-03-13T15:55:21.953Z,79.52
2023-03-13T15:57:50.428Z,76.06
2023-03-13T16:00:20.000Z,76.10
2023-03-13T16:02:47.716Z,75.36
2023-03-13T16:05:15.270Z,76.15
2023-03-13T16:07:42.782Z,80.14
2023-03-13T16:10:13.953Z,78.64
2023-03-13T16:12:42.852Z,79.44
2023-03-13T16:15:10.927Z,75.01
2023-03-13T16:17:38.404Z,79.09
2023-03-13T16:20:10.518Z,73.21
2023-03-13T16:22:38.023Z,78.69
2023-03-13T16:25:07.084Z,79.20
2023-03-13T16:27:34.789Z,80.18
2023-03-13T16:30:04.258Z,79.68
2023-03-13T16:32:31.915Z,75.73
2023-03-13T16:35:00.164Z,73.24
2023-03-13T16:37:27.625Z,81.53
2023-03-13T16:39:55.148Z,76.79
2023-03-13T16:42:22.936Z,76.84
2023-03-13T16:44:50.429Z,78.03
2023-03-13T16:47:20.913Z,76.42
2023-03-13T16:49:48.574Z,78.81
2023-03-13T16:52:16.281Z,78.89
2023-03-13T16:54:44.034Z,74.24
2023-03-13T16:57:12.016Z,80.26
2023-03-13T16:59:39.489Z,79.82
2023-03-13T17:02:07.522Z,78.74
2023-03-13T17:04:36.488Z,77.72
2023-03-13T17:07:04.056Z,78.71
2023-03-13T17:09:31.497Z,77.71
2023-03-13T17:11:58.979Z,76.54
2023-03-13T17:14:26.445Z,80.36
2023-03-13T17:16:53.905Z,82.29
2023-03-13T17:19:21.374Z,80.02
2023-03-13T17:21:50.276Z,79.94
2023-03-13T17:24:17.803Z,82.55
2023-03-13T17:26:45.299Z,80.85
2023-03-13T17:29:13.861Z,82.52
2023-03-13T17:31:41.632Z,82.64
2023-03-13T17:34:09.268Z,82.19
2023-03-13T17:36:36.986Z,82.20
2023-03-13T17:39:08.719Z,83.61
2023-03-13T17:41:36.561Z,82.53
2023-03-13T17:44:04.677Z,82.58
2023-03-13T17:46:33.999Z,82.48
2023-03-13T17:49:01.769Z,82.66
2023-03-13T17:51:29.839Z,83.12
2023-03-13T17:53:57.981Z,83.23
2023-03-13T17:56:27.528Z,83.10
2023-03-13T17:58:57.686Z,83.26
2023-03-13T18:01:26.428Z,83.82
2023-03-13T18:03:53.960Z,83.91
2023-03-13T18:06:22.320Z,84.06
2023-03-13T18:08:50.278Z,84.34
2023-03-13T18:11:18.255Z,84.05
2023-03-13T18:13:47.256Z,83.98
2023-03-13T18:16:16.898Z,83.20
2023-03-13T18:18:44.447Z,84.47
2023-03-13T18:21:11.978Z,84.53
2023-03-13T18:23:39.475Z,84.36
2023-03-13T18:26:13.630Z,84.43
2023-03-13T18:28:41.111Z,82.02
2023-03-13T18:31:11.760Z,83.51
2023-03-13T18:33:41.624Z,83.64
2023-03-13T18:36:12.761Z,83.82
2023-03-13T18:38:40.330Z,84.47
2023-03-13T18:41:10.072Z,84.82
2023-03-13T18:43:38.252Z,83.13
2023-03-13T18:46:05.984Z,84.27
2023-03-13T18:48:34.914Z,82.84
2023-03-13T18:51:04.010Z,84.38
2023-03-13T18:53:31.550Z,84.25
2023-03-13T18:55:59.617Z,84.37
2023-03-13T18:58:27.103Z,85.17
2023-03-13T19:00:54.698Z,85.28
2023-03-13T19:03:22.622Z,84.54
2023-03-13T19:05:51.561Z,85.64
2023-03-13T19:08:19.127Z,85.86
2023-03-13T19:10:46.641Z,85.67
2023-03-13T19:13:14.173Z,85.50
2023-03-13T19:15:41.664Z,85.47
2023-03-13T19:18:10.668Z,85.66
2023-03-13T19:20:38.155Z,85.78
2023-03-13T19:23:07.032Z,85.94
2023-03-13T19:25:34.622Z,86.09
2023-03-13T19:28:02.066Z,86.22
2023-03-13T19:30:29.565Z,86.00
2023-03-13T19:32:57.132Z,86.20
2023-03-13T19:35:24.714Z,85.52
2023-03-13T19:37:52.261Z,86.56
2023-03-13T19:40:21.805Z,86.39
2023-03-13T19:42:49.371Z,86.94
2023-03-13T19:45:19.727Z,86.90
2023-03-13T19:47:47.271Z,86.98
2023-03-13T19:50:17.262Z,87.04
2023-03-13T19:52:45.982Z,86.87
2023-03-13T19:55:13.551Z,87.52
2023-03-13T19:57:42.444Z,87.62
2023-03-13T20:00:14.153Z,86.94
2023-03-13T20:02:42.554Z,87.13
2023-03-13T20:05:10.555Z,87.47
2023-03-13T20:07:38.296Z,87.26
2023-03-13T20:10:06.293Z,87.59
2023-03-13T20:12:34.159Z,87.32
2023-03-13T20:15:03.094Z,87.40
2023-03-13T20:17:30.578Z,87.35
2023-03-13T20:19:58.090Z,87.56
2023-03-13T20:22:25.652Z,87.43
2023-03-13T20:24:53.492Z,87.57
2023-03-13T20:27:21.045Z,87.85
2023-03-13T20:29:48.657Z,87.60
2023-03-13T20:32:17.576Z,88.02
2023-03-13T20:34:45.138Z,87.77
2023-03-13T20:37:12.624Z,88.01
2023-03-13T20:39:40.192Z,88.13
2023-03-13T20:42:08.328Z,87.82
2023-03-13T20:44:35.811Z,87.95
2023-03-13T20:47:03.351Z,88.01
2023-03-13T20:49:32.192Z,87.90
2023-03-13T20:51:59.663Z,88.28
2023-03-13T20:54:27.202Z,88.37
2023-03-13T20:56:55.372Z,88.80
2023-03-13T20:59:22.920Z,88.69
2023-03-13T21:01:50.501Z,88.48
2023-03-13T21:04:18.065Z,88.46
2023-03-13T21:06:47.227Z,88.78
2023-03-13T21:09:14.710Z,88.37
2023-03-13T21:11:42.195Z,88.33
2023-03-13T21:14:09.705Z,88.53
2023-03-13T21:16:37.334Z,88.59
2023-03-13T21:19:04.893Z,88.76
2023-03-13T21:21:32.798Z,88.61
2023-03-13T21:24:01.659Z,88.64
2023-03-13T21:26:29.164Z,88.69
2023-03-13T21:28:56.698Z,88.79
2023-03-13T21:31:24.309Z,88.99
2023-03-13T21:33:51.842Z,88.99
2023-03-13T21:36:21.452Z,88.96
2023-03-13T21:38:49.141Z,89.13
2023-03-13T21:41:18.690Z,88.82
2023-03-13T21:43:46.354Z,88.55
2023-03-13T21:46:14.404Z,88.81
2023-03-13T21:48:42.509Z,88.67
2023-03-13T21:51:10.379Z,88.35
2023-03-13T21:53:38.064Z,88.24
2023-03-13T21:56:05.852Z,88.24
2023-03-13T21:58:34.707Z,88.45
2023-03-13T22:01:02.250Z,88.42
2023-03-13T22:03:31.694Z,88.58
2023-03-13T22:05:59.187Z,88.43
2023-03-13T22:08:26.636Z,88.29
2023-03-13T22:10:55.075Z,88.32
2023-03-13T22:13:22.761Z,88.28
2023-03-13T22:15:52.725Z,88.49
2023-03-13T22:18:20.296Z,88.58
2023-03-13T22:20:47.717Z,88.45
2023-03-13T22:23:15.178Z,88.67
2023-03-13T22:25:43.268Z,88.15
2023-03-13T22:28:10.835Z,88.38
2023-03-13T22:30:38.689Z,88.62
2023-03-13T22:33:07.700Z,88.75
2023-03-13T22:35:35.433Z,88.38
2023-03-13T22:38:02.986Z,88.52
2023-03-13T22:40:30.469Z,88.38
2023-03-13T22:42:58.198Z,88.53
2023-03-13T22:45:25.724Z,88.62
2023-03-13T22:47:53.295Z,88.64
2023-03-13T22:50:25.615Z,88.49
2023-03-13T22:52:53.402Z,88.64
2023-03-13T22:55:20.906Z,88.53
2023-03-13T22:57:48.410Z,88.53
2023-03-13T23:00:16.389Z,88.44
2023-03-13T23:02:43.824Z,88.60
2023-03-13T23:05:11.460Z,88.66
2023-03-13T23:07:40.877Z,88.58
2023-03-13T23:10:08.904Z,88.60
2023-03-13T23:12:36.379Z,88.73
2023-03-13T23:15:04.086Z,88.91
2023-03-13T23:17:31.907Z,88.89
2023-03-13T23:20:01.051Z,88.66
2023-03-13T23:22:32.759Z,88.53
2023-03-13T23:25:01.951Z,88.69
2023-03-13T23:27:29.514Z,88.82
2023-03-13T23:29:57.056Z,89.49
2023-03-13T23:32:25.118Z,89.03
2023-03-13T23:34:52.693Z,88.99
2023-03-13T23:37:20.190Z,89.59
2023-03-13T23:39:47.688Z,88.95
2023-03-13T23:42:16.514Z,89.29
2023-03-13T23:44:43.944Z,89.10
2023-03-13T23:47:11.435Z,89.47
2023-03-13T23:49:40.779Z,89.00
2023-03-13T23:52:08.940Z,89.03
2023-03-13T23:54:36.613Z,89.08
2023-03-13T23:57:04.071Z,88.89
2023-03-13T23:59:32.894Z,89.34
